Date,TemperatureHighF,TemperatureAvgF,TemperatureLowF,DewpointHighF,DewpointAvgF,DewpointLowF,HumidityHigh,HumidityAvg,HumidityLow,PressureMaxIn,PressureMinIn,WindSpeedMaxMPH,WindSpeedAvgMPH,GustSpeedMaxMPH,PrecipitationSumIn
2014-1-1,46,38,19,32,28,19,99,69,52,29.97,29.75,16,5,18,0.00
2014-1-2,21,13,5,17,7,-1,99,78,57,30.27,29.93,13,6,14,0.00
2014-1-3,33,18,2,18,9,-2,88,70,45,30.27,29.81,19,8,24,0.00
2014-1-4,46,35,25,33,29,18,99,79,56,29.78,29.68,16,7,17,0.00
2014-1-5,32,14,1,32,11,-10,99,88,57,30.22,29.67,17,11,24,0.01
2014-1-6,3,-4,-11,-10,-13,-18,79,63,47,30.34,30.21,19,8,21,0.00
2014-1-7,36,14,-9,18,3,-14,81,63,38,30.26,29.96,15,6,19,0.00
2014-1-8,45,32,22,30,22,15,99,70,40,30.16,30.05,10,4,10,0.00
2014-1-9,34,31,28,34,31,28,99,99,99,30.12,29.91,9,6,9,0.01
2014-1-10,47,40,32,46,40,32,99,99,99,29.89,29.42,17,8,17,0.51
2014-1-11,50,43,34,40,36,32,99,77,59,29.81,29.49,18,10,22,0.00
2014-1-12,66,53,29,34,30,25,99,45,21,29.80,29.47,22,12,28,0.13
2014-1-13,55,51,42,37,33,26,78,52,38,29.70,29.48,16,10,21,0.00
2014-1-14,47,38,28,33,21,6,83,52,23,29.99,29.64,14,8,14,0.00
2014-1-15,32,24,18,13,10,2,76,56,29,30.05,29.95,10,6,12,0.00
2014-1-16,49,39,25,30,23,15,94,54,33,29.79,29.61,15,10,15,0.01
2014-1-17,31,22,17,16,9,5,93,60,35,29.95,29.80,15,8,15,0.00
2014-1-18,49,35,19,28,21,6,79,59,35,29.90,29.59,27,11,29,0.13
2014-1-19,26,22,19,20,18,17,92,86,79,29.94,29.89,11,6,14,0.00
2014-1-20,60,47,34,31,26,20,73,46,25,29.90,29.70,17,6,17,0.00
2014-1-21,32,20,12,20,3,-8,84,51,23,30.20,29.91,23,9,23,0.00
2014-1-22,37,26,17,17,10,4,68,49,30,30.14,29.90,17,7,17,0.00
2014-1-23,19,8,4,8,-6,-9,69,53,35,30.53,30.16,15,8,17,0.00
2014-1-24,36,18,1,0,-8,-18,78,44,10,30.48,29.92,22,10,23,0.00
2014-1-25,49,38,25,32,20,7,72,48,28,29.82,29.62,22,9,22,0.01
2014-1-26,62,47,28,33,28,19,83,50,30,29.86,29.49,20,8,25,0.00
2014-1-27,30,19,11,20,-3,-15,68,38,21,30.22,29.86,21,12,25,0.01
2014-1-28,25,16,4,-1,-9,-13,66,35,19,30.30,30.17,9,5,11,0.00
2014-1-29,43,24,5,13,5,-2,82,49,19,30.15,29.87,11,6,11,0.00
2014-1-30,51,35,24,19,13,8,61,43,20,29.87,29.62,18,8,18,0.00
2014-1-31,34,32,29,32,27,19,99,82,63,29.84,29.70,10,4,10,0.01
2014-2-1,44,32,25,44,32,24,99,99,99,29.95,29.57,8,2,8,0.14
2014-2-2,24,18,13,24,17,13,99,96,89,30.13,29.95,0,0,0,0.00
2014-2-3,13,11,10,13,11,10,99,99,99,30.12,30.09,0,0,0,0.00
2014-2-4,27,26,24,27,23,20,99,88,73,30.03,29.74,12,7,12,0.02
2014-2-6,18,11,1,0,-2,-3,86,57,41,30.41,30.28,9,6,9,0.00
2014-2-7,1,1,0,-3,-3,-4,83,83,82,30.25,30.22,2,1,2,0.00
2014-2-8,33,26,18,29,22,11,99,86,74,30.03,29.89,11,4,11,0.00
2014-2-9,30,25,17,27,24,15,99,95,83,30.14,29.93,12,6,12,0.00
2014-2-10,23,18,10,16,9,6,99,71,48,30.24,30.12,9,7,11,0.00
2014-2-14,44,33,20,42,30,19,99,90,80,29.93,29.46,17,8,17,0.05
2014-2-15,43,29,13,32,22,13,99,79,45,29.94,29.74,11,4,11,0.00
2014-2-16,43,38,27,34,32,27,99,79,67,30.01,29.83,12,5,12,0.00
2014-2-17,56,43,36,44,31,22,97,66,30,29.93,29.65,21,10,21,0.04
2014-2-18,69,51,36,31,26,21,70,42,16,29.91,29.62,18,8,18,0.00
2014-2-19,62,50,34,42,29,14,84,49,15,29.88,29.53,14,6,14,0.00
2014-2-20,73,54,41,62,48,35,99,81,39,29.56,29.23,35,18,53,5.44
2014-2-21,60,46,32,24,13,-1,69,33,10,29.83,29.67,26,10,26,0.00
2014-2-22,69,49,34,36,24,12,83,44,11,29.82,29.67,11,6,12,0.00
2014-2-24,49,34,19,17,9,-2,83,42,13,30.17,29.95,12,4,12,0.00
2014-2-25,35,28,18,21,16,11,91,60,37,30.15,29.99,12,8,12,0.00
2014-2-26,32,20,10,14,5,-2,96,55,23,30.17,29.83,13,7,13,0.00
2014-2-27,45,29,19,14,3,-9,73,37,10,29.94,29.80,13,6,13,0.00
2014-2-28,52,36,22,34,19,2,84,52,26,29.84,29.69,15,8,15,0.00
2014-3-1,50,36,22,38,30,22,99,83,58,30.03,29.85,14,6,14,0.00
2014-3-2,22,11,3,22,10,-2,99,94,76,30.17,29.99,18,12,18,0.00
2014-3-3,4,3,3,-2,-3,-4,78,75,70,30.19,30.16,16,12,17,0.00
2014-3-9,64,44,29,44,33,27,99,72,25,30.14,29.89,11,5,11,0.01
2014-3-10,80,58,42,44,32,15,99,52,10,29.89,29.61,15,10,15,0.00
2014-3-11,83,64,45,54,46,32,99,54,30,29.61,29.32,19,8,19,0.15
2014-3-12,50,41,33,42,29,21,99,67,33,29.99,29.51,21,11,21,0.01
2014-3-13,71,51,32,31,20,8,81,40,10,29.97,29.81,15,7,15,0.00
2014-3-14,69,55,45,31,26,19,48,35,15,29.86,29.71,19,9,19,0.00
2014-3-15,76,55,34,48,33,19,76,49,14,29.87,29.69,14,5,14,0.00
2014-3-16,53,36,28,51,35,27,99,97,86,29.84,29.61,19,4,19,0.37